Time;durP1;ratioP1;P1;durP2;ratioP2;P2;SDS_P1;SDS_P2;PMS_P1;PMS_P2;Temp;Humidity;BMP_temperature;BMP_pressure;BME280_temperature;BME280_humidity;BME280_pressure;Samples;Min_cycle;Max_cycle;Signal;HPM_P1;HPM_P2
2022/04/07 00:00:31;;;;;;;5.93;2.47;;;;;;;10.44;95.03;98463.78;5183402;28;20041;-78
2022/04/07 00:03:01;;;;;;;5.82;2.90;;;;;;;10.44;95.85;98458.56;5186876;28;20091;-77
2022/04/07 00:05:32;;;;;;;6.07;2.60;;;;;;;10.46;95.06;98464.50;5185493;28;20029;-77
2022/04/07 00:08:02;;;;;;;5.93;2.85;;;;;;;10.39;95.41;98455.44;5185732;28;20041;-77
2022/04/07 00:10:33;;;;;;;5.28;2.72;;;;;;;10.40;95.69;98457.13;5186439;28;20025;-77
2022/04/07 00:13:04;;;;;;;5.05;2.63;;;;;;;10.37;95.97;98446.88;5185915;28;20033;-76
2022/04/07 00:15:34;;;;;;;5.82;3.10;;;;;;;10.41;95.73;98443.97;5186396;28;20029;-77
2022/04/07 00:18:04;;;;;;;5.35;2.55;;;;;;;10.49;95.34;98448.66;5184606;28;20033;-77
2022/04/07 00:20:34;;;;;;;5.00;2.97;;;;;;;10.48;95.21;98439.16;5186124;28;20646;-77
2022/04/07 00:23:05;;;;;;;6.05;2.70;;;;;;;10.40;96.12;98441.44;5186354;28;20665;-78
2022/04/07 00:25:35;;;;;;;4.82;2.80;;;;;;;10.44;95.71;98427.22;5193070;28;20037;-77
2022/04/07 00:28:05;;;;;;;5.53;2.65;;;;;;;10.44;95.14;98442.91;5175791;28;20097;-78
2022/04/07 00:30:37;;;;;;;4.47;2.83;;;;;;;10.36;95.69;98432.16;5182803;28;20033;-77
2022/04/07 00:33:07;;;;;;;7.30;2.90;;;;;;;10.39;96.01;98413.66;5189462;28;20661;-78
2022/04/07 00:35:37;;;;;;;8.00;2.90;;;;;;;10.45;94.92;98415.84;5190027;28;20030;-77
2022/04/07 00:38:08;;;;;;;5.03;2.90;;;;;;;10.49;94.17;98415.53;5192307;28;20505;-77
2022/04/07 00:40:38;;;;;;;5.70;2.88;;;;;;;10.45;94.92;98408.00;5189692;28;20030;-77
2022/04/07 00:43:08;;;;;;;5.13;2.73;;;;;;;10.57;93.92;98408.03;5192192;28;20042;-77
2022/04/07 00:45:39;;;;;;;5.43;2.85;;;;;;;10.58;94.16;98398.38;5180424;28;20348;-77
2022/04/07 00:48:09;;;;;;;4.77;2.70;;;;;;;10.55;94.53;98403.84;5190913;28;20033;-78
2022/04/07 00:50:39;;;;;;;4.70;2.60;;;;;;;10.56;94.32;98397.66;5197244;28;20276;-77
2022/04/07 00:53:09;;;;;;;7.25;2.95;;;;;;;10.48;94.68;98385.16;5193891;28;20292;-77
2022/04/07 00:55:42;;;;;;;6.47;3.03;;;;;;;10.44;94.73;98380.25;5197478;28;20418;-78
2022/04/07 00:58:12;;;;;;;6.82;3.10;;;;;;;10.49;94.67;98383.38;5189316;28;20041;-78
2022/04/07 01:00:43;;;;;;;4.50;2.70;;;;;;;10.31;95.30;98390.69;5195722;28;20032;-77
2022/04/07 01:03:14;;;;;;;6.03;3.13;;;;;;;10.24;95.26;98372.97;5193056;28;20467;-78
2022/04/07 01:05:44;;;;;;;5.15;2.80;;;;;;;10.16;95.72;98385.72;5197262;28;20025;-77
2022/04/07 01:08:14;;;;;;;5.43;3.03;;;;;;;10.13;95.50;98370.28;5193818;28;20116;-77
2022/04/07 01:10:45;;;;;;;5.85;3.20;;;;;;;9.97;97.20;98374.84;5196506;28;20026;-77
2022/04/07 01:13:16;;;;;;;7.78;3.20;;;;;;;9.97;96.78;98361.78;5193278;28;20025;-78
2022/04/07 01:15:46;;;;;;;6.45;3.58;;;;;;;10.01;97.66;98365.84;5191913;28;20083;-77
2022/04/07 01:18:18;;;;;;;6.63;3.05;;;;;;;9.81;98.20;98353.34;5191672;28;20446;-77
2022/04/07 01:20:48;;;;;;;8.55;3.40;;;;;;;9.86;97.70;98348.63;5193615;28;20408;-77
2022/04/07 01:23:19;;;;;;;7.18;3.22;;;;;;;9.85;98.28;98339.97;5196637;28;20044;-77
2022/04/07 01:25:49;;;;;;;5.72;3.47;;;;;;;9.80;98.53;98336.03;5193818;28;20037;-78
2022/04/07 01:28:20;;;;;;;9.52;3.60;;;;;;;9.76;99.30;98324.09;5195658;28;20036;-78
2022/04/07 01:30:51;;;;;;;7.20;3.67;;;;;;;9.62;99.54;98329.44;5192013;28;20125;-76
2022/04/07 01:33:21;;;;;;;6.75;3.22;;;;;;;9.62;99.80;98327.66;5193937;28;20084;-77
2022/04/07 01:35:52;;;;;;;7.30;3.90;;;;;;;9.68;100.00;98331.63;5195363;28;20055;-78
2022/04/07 01:38:23;;;;;;;9.82;3.90;;;;;;;9.65;100.00;98321.41;5194361;28;20031;-77
2022/04/07 01:40:53;;;;;;;5.88;3.60;;;;;;;9.67;100.00;98315.13;5192220;28;20018;-77
2022/04/07 01:43:24;;;;;;;8.35;3.55;;;;;;;9.70;100.00;98314.94;5191836;28;20389;-78
2022/04/07 01:45:55;;;;;;;6.93;3.55;;;;;;;9.73;100.00;98324.31;5185144;28;20033;-76
2022/04/07 01:48:26;;;;;;;8.38;3.78;;;;;;;9.83;100.00;98315.75;5192844;28;20562;-76
2022/04/07 01:50:57;;;;;;;8.75;4.57;;;;;;;9.89;100.00;98320.56;5194541;28;20108;-78
2022/04/07 01:53:28;;;;;;;8.07;4.22;;;;;;;9.94;100.00;98315.03;5196681;28;20030;-77
2022/04/07 01:55:59;;;;;;;7.13;3.92;;;;;;;9.93;100.00;98311.59;5194923;28;20030;-77
2022/04/07 01:58:29;;;;;;;8.35;3.65;;;;;;;9.97;100.00;98317.44;5193712;28;20498;-77
2022/04/07 02:01:00;;;;;;;8.05;3.88;;;;;;;9.93;100.00;98310.75;5190496;28;20040;-79
2022/04/07 02:03:30;;;;;;;8.45;3.92;;;;;;;10.00;100.00;98301.56;5183909;28;20030;-78
2022/04/07 02:06:19;;;;;;;6.55;3.65;;;;;;;9.88;100.00;98307.63;5194018;28;20110;-78
2022/04/07 02:08:49;;;;;;;7.25;4.10;;;;;;;9.87;100.00;98301.59;5189554;28;20028;-78
2022/04/07 02:11:22;;;;;;;7.60;4.50;;;;;;;9.81;100.00;98301.19;5194326;28;20033;-78
2022/04/07 02:13:53;;;;;;;8.93;4.20;;;;;;;9.84;100.00;98291.34;5188298;28;20364;-77
2022/04/07 02:16:24;;;;;;;7.13;3.90;;;;;;;9.84;100.00;98296.56;5185240;28;20495;-77
2022/04/07 02:18:54;;;;;;;9.90;3.88;;;;;;;9.79;100.00;98283.00;5191905;28;20041;-78
2022/04/07 02:21:25;;;;;;;9.40;4.13;;;;;;;9.74;100.00;98284.25;5193164;28;20029;-78
2022/04/07 02:23:56;;;;;;;6.53;3.53;;;;;;;9.69;100.00;98275.94;5192824;28;20033;-79
2022/04/07 02:26:26;;;;;;;6.05;3.80;;;;;;;9.83;100.00;98281.84;5193064;28;20452;-78
2022/04/07 02:28:57;;;;;;;7.05;3.53;;;;;;;9.83;100.00;98274.03;5193871;28;20119;-78
2022/04/07 02:31:27;;;;;;;8.13;3.95;;;;;;;9.76;100.00;98271.94;5189288;28;20109;-78
2022/04/07 02:33:57;;;;;;;9.13;3.90;;;;;;;9.68;100.00;98269.88;5185669;28;20026;-78
2022/04/07 02:36:27;;;;;;;6.60;4.10;;;;;;;9.78;100.00;98267.47;5192347;28;20495;-78
2022/04/07 02:38:58;;;;;;;7.40;4.10;;;;;;;9.68;100.00;98267.25;5193741;28;20033;-78
2022/04/07 02:41:31;;;;;;;9.23;4.00;;;;;;;9.74;100.00;98269.47;5192936;28;20139;-77
2022/04/07 02:44:02;;;;;;;9.13;4.20;;;;;;;9.70;100.00;98268.00;5188394;28;20053;-77
2022/04/07 02:46:32;;;;;;;6.32;3.60;;;;;;;9.65;100.00;98253.63;5185585;28;20029;-77
2022/04/07 02:49:03;;;;;;;7.35;4.00;;;;;;;9.62;100.00;98239.00;5192202;28;20048;-78
2022/04/07 02:51:34;;;;;;;7.47;3.80;;;;;;;9.62;100.00;98253.84;5193518;28;20021;-79
2022/04/07 02:54:04;;;;;;;6.47;3.20;;;;;;;9.52;100.00;98240.56;5191831;28;20042;-79
2022/04/07 02:56:35;;;;;;;4.07;2.60;;;;;;;9.53;100.00;98238.81;5193472;28;20036;-78
2022/04/07 02:59:05;;;;;;;4.53;2.30;;;;;;;9.56;100.00;98235.97;5191698;28;20384;-78
2022/04/07 03:01:35;;;;;;;5.35;2.58;;;;;;;9.49;100.00;98232.16;5188614;28;20618;-77
2022/04/07 03:04:05;;;;;;;4.13;2.07;;;;;;;9.40;100.00;98231.00;5185756;28;20411;-77
2022/04/07 03:06:36;;;;;;;6.10;3.17;;;;;;;9.41;100.00;98226.59;5190961;28;20620;-77
2022/04/07 03:09:06;;;;;;;8.43;2.97;;;;;;;9.47;100.00;98229.63;5193514;28;20029;-78
2022/04/07 03:11:36;;;;;;;5.78;2.85;;;;;;;9.38;100.00;98214.63;5190290;28;20272;-79
2022/04/07 03:14:07;;;;;;;8.63;3.03;;;;;;;9.33;100.00;98195.84;5186756;28;20388;-79
2022/04/07 03:16:38;;;;;;;4.68;2.50;;;;;;;9.22;100.00;98202.72;5185714;28;20113;-78
2022/04/07 03:19:09;;;;;;;6.78;3.00;;;;;;;9.24;100.00;98195.63;5190795;28;20744;-78
2022/04/07 03:21:39;;;;;;;5.47;2.75;;;;;;;9.21;100.00;98185.44;5193551;28;20364;-79
2022/04/07 03:24:10;;;;;;;5.88;2.83;;;;;;;9.15;100.00;98185.84;5190248;28;20100;-79
2022/04/07 03:26:40;;;;;;;5.80;2.70;;;;;;;9.13;100.00;98182.53;5193904;28;20410;-78
2022/04/07 03:29:11;;;;;;;6.57;2.90;;;;;;;9.10;100.00;98167.09;5190278;28;20133;-79
2022/04/07 03:31:41;;;;;;;4.43;2.80;;;;;;;8.99;100.00;98153.97;5188326;28;20531;-79
2022/04/07 03:34:12;;;;;;;5.97;2.85;;;;;;;9.18;100.00;98151.78;5186490;28;20093;-79
2022/04/07 03:36:43;;;;;;;6.10;2.58;;;;;;;9.05;100.00;98147.50;5185849;28;20030;-77
2022/04/07 03:39:13;;;;;;;5.03;2.80;;;;;;;8.97;100.00;98144.59;5193914;28;20080;-76
2022/04/07 03:41:43;;;;;;;5.95;2.63;;;;;;;8.99;100.00;98145.31;5189894;28;20030;-79
2022/04/07 03:44:14;;;;;;;4.70;2.63;;;;;;;8.96;100.00;98138.56;5186365;28;20025;-79
2022/04/07 03:46:44;;;;;;;3.25;1.90;;;;;;;8.93;100.00;98130.09;5185973;28;20033;-78
2022/04/07 03:49:14;;;;;;;3.55;1.70;;;;;;;9.06;100.00;98131.75;5188943;28;20053;-78
2022/04/07 03:51:45;;;;;;;3.25;1.60;;;;;;;9.00;100.00;98140.00;5192870;28;20022;-77
2022/04/07 03:54:17;;;;;;;2.88;1.40;;;;;;;8.99;100.00;98127.06;5189855;28;20029;-78
2022/04/07 03:56:47;;;;;;;4.68;1.60;;;;;;;8.88;100.00;98122.59;5191969;28;20131;-78
2022/04/07 03:59:17;;;;;;;2.17;1.30;;;;;;;8.88;100.00;98129.59;5189914;28;20098;-77
2022/04/07 04:01:48;;;;;;;2.83;1.33;;;;;;;8.88;100.00;98113.97;5185748;28;20030;-78
2022/04/07 04:04:20;;;;;;;2.25;1.30;;;;;;;8.81;100.00;98112.69;5185280;28;20029;-78
2022/04/07 04:06:50;;;;;;;3.92;1.10;;;;;;;8.81;100.00;98107.50;5188827;28;20037;-78
2022/04/07 04:09:20;;;;;;;2.17;1.20;;;;;;;8.71;100.00;98112.50;5191545;28;20025;-78
2022/04/07 04:11:52;;;;;;;2.00;1.30;;;;;;;8.75;100.00;98098.31;5189852;28;20025;-78
2022/04/07 04:14:23;;;;;;;4.57;1.20;;;;;;;8.62;100.00;98102.72;5184457;28;20291;-79
2022/04/07 04:16:53;;;;;;;2.13;0.98;;;;;;;8.66;100.00;98095.50;5185194;28;20100;-78
2022/04/07 04:19:24;;;;;;;2.65;1.30;;;;;;;8.57;100.00;98089.16;5190509;28;20152;-78
2022/04/07 04:21:55;;;;;;;3.72;1.63;;;;;;;8.51;100.00;98084.38;5189008;28;20569;-78
2022/04/07 04:24:26;;;;;;;3.03;1.63;;;;;;;8.65;100.00;98086.88;5188777;28;20030;-78
2022/04/07 04:26:56;;;;;;;5.03;1.50;;;;;;;8.69;100.00;98082.31;5190711;28;20105;-78
2022/04/07 04:29:26;;;;;;;2.75;1.70;;;;;;;8.64;100.00;98080.00;5190917;28;20037;-78
2022/04/07 04:31:57;;;;;;;2.72;1.75;;;;;;;8.70;100.00;98071.78;5183707;28;20476;-78
2022/04/07 04:34:27;;;;;;;2.53;1.60;;;;;;;8.71;100.00;98072.63;5184736;28;20090;-78
2022/04/07 04:36:57;;;;;;;4.25;1.80;;;;;;;8.77;100.00;98073.03;5188725;28;20021;-79
2022/04/07 04:39:27;;;;;;;3.03;1.58;;;;;;;8.75;100.00;98072.28;5190794;28;20044;-79
2022/04/07 04:41:58;;;;;;;3.30;1.90;;;;;;;8.72;100.00;98069.91;5188713;28;20029;-78
2022/04/07 04:44:28;;;;;;;4.45;2.03;;;;;;;8.67;100.00;98058.13;5184698;28;20449;-78
2022/04/07 04:46:58;;;;;;;6.13;2.60;;;;;;;8.72;100.00;98051.66;5184758;28;20029;-78
2022/04/07 04:49:28;;;;;;;3.80;1.80;;;;;;;8.70;100.00;98056.16;5190863;28;20307;-78
2022/04/07 04:51:59;;;;;;;5.03;2.08;;;;;;;8.79;100.00;98047.72;5189846;28;20870;-78
2022/04/07 04:54:29;;;;;;;4.10;2.03;;;;;;;8.85;100.00;98044.69;5190690;28;20184;-78
2022/04/07 04:56:59;;;;;;;3.00;2.00;;;;;;;9.01;100.00;98037.50;5189684;28;20383;-78
2022/04/07 04:59:30;;;;;;;5.40;2.42;;;;;;;9.10;100.00;98026.41;5190834;28;20633;-79
2022/04/07 05:02:00;;;;;;;5.50;2.45;;;;;;;9.07;100.00;98018.81;5182671;28;20041;-80
2022/04/07 05:04:31;;;;;;;5.78;2.05;;;;;;;9.17;100.00;98023.25;5184540;28;20048;-78
2022/04/07 05:07:02;;;;;;;4.40;2.40;;;;;;;9.22;100.00;98020.34;5190688;28;20095;-77
2022/04/07 05:09:32;;;;;;;4.95;2.28;;;;;;;9.25;100.00;98015.75;5189350;28;20080;-78
2022/04/07 05:12:03;;;;;;;5.40;2.22;;;;;;;9.33;100.00;98017.81;5189207;28;20022;-78
2022/04/07 05:14:33;;;;;;;5.05;2.17;;;;;;;9.34;100.00;98009.06;5182452;28;20155;-78
2022/04/07 05:17:04;;;;;;;3.78;2.50;;;;;;;9.45;100.00;98001.31;5184323;28;20029;-78
2022/04/07 05:19:35;;;;;;;3.83;1.88;;;;;;;9.55;100.00;97997.09;5190036;28;20032;-78
2022/04/07 05:24:38;;;;;;;3.28;1.60;;;;;;;9.83;100.00;97987.13;5197095;28;20049;-78
2022/04/07 05:27:08;;;;;;;4.43;1.60;;;;;;;9.94;100.00;97983.72;5195932;28;20565;-78
2022/04/07 05:29:38;;;;;;;2.70;1.35;;;;;;;10.11;100.00;97981.56;5198878;28;20033;-77
2022/04/07 05:32:09;;;;;;;2.85;1.42;;;;;;;10.19;100.00;97981.81;5191197;28;20542;-78
2022/04/07 05:34:39;;;;;;;2.73;1.10;;;;;;;10.24;99.54;97986.69;5195779;28;20080;-78
2022/04/07 05:37:09;;;;;;;1.33;0.70;;;;;;;10.34;98.20;97990.28;5198195;28;20340;-78
2022/04/07 05:39:40;;;;;;;2.33;1.10;;;;;;;10.41;97.01;97981.03;5200884;28;20092;-78
2022/04/07 05:42:10;;;;;;;2.63;0.80;;;;;;;10.55;97.92;97978.19;5182307;28;20030;-77
2022/04/07 05:44:40;;;;;;;2.58;0.70;;;;;;;10.46;96.81;97977.13;5199317;28;20276;-78
2022/04/07 05:47:10;;;;;;;1.45;0.73;;;;;;;10.70;96.79;97971.78;5195932;28;20029;-77
2022/04/07 05:49:41;;;;;;;2.97;0.70;;;;;;;10.58;96.46;97973.56;5198305;28;20033;-77
2022/04/07 05:52:11;;;;;;;2.15;0.73;;;;;;;10.47;96.20;97972.72;5199876;28;20149;-78
2022/04/07 05:54:41;;;;;;;3.50;0.82;;;;;;;10.49;96.49;97965.63;5183886;28;20026;-78
2022/04/07 05:57:12;;;;;;;1.73;0.60;;;;;;;10.47;96.67;97957.03;5185213;28;20053;-77
2022/04/07 05:59:42;;;;;;;1.27;0.55;;;;;;;10.41;97.42;97971.41;5190458;28;20112;-77
2022/04/07 06:02:12;;;;;;;1.63;0.40;;;;;;;10.37;96.96;97956.09;5184852;28;20399;-78
2022/04/07 06:04:42;;;;;;;2.58;0.60;;;;;;;10.34;97.41;97945.91;5181893;28;20704;-78
2022/04/07 06:07:13;;;;;;;1.23;0.45;;;;;;;10.39;97.31;97938.53;5192015;28;20110;-77
2022/04/07 06:09:43;;;;;;;0.93;0.50;;;;;;;10.34;97.39;97940.69;5193115;28;20273;-78
2022/04/07 06:12:13;;;;;;;3.05;0.73;;;;;;;10.26;97.00;97928.22;5183939;28;20040;-78
2022/04/07 06:14:43;;;;;;;1.08;0.40;;;;;;;10.34;96.53;97917.19;5192599;28;20025;-78
2022/04/07 06:17:14;;;;;;;1.52;0.75;;;;;;;10.27;97.33;97919.44;5191650;28;20407;-78
2022/04/07 06:19:44;;;;;;;1.40;0.40;;;;;;;10.34;97.27;97910.16;5192046;28;20049;-78
2022/04/07 06:22:15;;;;;;;1.70;0.52;;;;;;;10.77;96.83;97892.00;5189899;28;20042;-78
2022/04/07 06:24:45;;;;;;;1.67;0.40;;;;;;;10.83;94.86;97881.06;5187840;28;20056;-78
2022/04/07 06:27:15;;;;;;;1.07;0.60;;;;;;;10.90;94.33;97888.31;5187972;28;20030;-78
2022/04/07 06:29:47;;;;;;;2.10;0.60;;;;;;;10.96;94.67;97890.41;5193195;28;20448;-78
2022/04/07 06:32:17;;;;;;;2.50;0.60;;;;;;;11.14;93.52;97876.69;5181400;28;20419;-78
2022/04/07 06:34:48;;;;;;;3.40;0.52;;;;;;;11.22;92.62;97874.31;5189793;28;20497;-78
2022/04/07 06:37:18;;;;;;;2.40;0.50;;;;;;;11.21;92.33;97877.88;5191130;28;20033;-78
2022/04/07 06:39:48;;;;;;;2.33;0.67;;;;;;;11.11;91.67;97860.44;5182427;28;20277;-78
2022/04/07 06:42:18;;;;;;;1.88;0.60;;;;;;;10.93;91.69;97868.91;5183521;28;20356;-78
2022/04/07 06:44:51;;;;;;;0.73;0.43;;;;;;;11.10;92.63;97864.00;5189761;28;20559;-77
2022/04/07 06:47:22;;;;;;;3.22;0.68;;;;;;;11.50;91.87;97863.25;5191732;28;20427;-78
2022/04/07 06:49:53;;;;;;;2.53;0.60;;;;;;;12.03;90.48;97836.09;5191424;28;20041;-78
2022/04/07 06:52:23;;;;;;;3.90;0.60;;;;;;;11.97;89.11;97827.91;5192141;28;20555;-77
2022/04/07 06:54:54;;;;;;;1.10;0.47;;;;;;;12.03;88.45;97824.78;5192396;28;20068;-77
2022/04/07 06:57:24;;;;;;;2.85;0.60;;;;;;;11.88;88.91;97813.81;5180948;28;20281;-78
2022/04/07 06:59:54;;;;;;;2.43;0.70;;;;;;;12.19;87.24;97814.66;5179620;28;20029;-77
2022/04/07 07:02:24;;;;;;;2.55;0.50;;;;;;;12.02;86.88;97800.41;5173391;28;20379;-78
2022/04/07 07:04:55;;;;;;;3.40;0.60;;;;;;;12.32;86.10;97789.88;5192066;28;20022;-78
2022/04/07 07:07:25;;;;;;;1.03;0.50;;;;;;;13.15;82.42;97785.91;5172239;28;20427;-78
2022/04/07 07:09:55;;;;;;;1.33;0.47;;;;;;;12.57;83.86;97781.56;5190355;28;20309;-78
2022/04/07 07:12:26;;;;;;;2.58;0.70;;;;;;;12.25;86.31;97783.53;5172590;28;20273;-78
2022/04/07 07:14:57;;;;;;;2.05;0.60;;;;;;;12.40;86.37;97766.50;5189446;28;20091;-78
2022/04/07 07:17:33;;;;;;;1.50;0.60;;;;;;;13.01;84.59;97745.22;5188424;28;20693;-78
2022/04/07 07:20:07;;;;;;;1.48;0.40;;;;;;;13.86;83.02;97727.63;5194963;28;20096;-78
2022/04/07 07:22:38;;;;;;;1.00;0.50;;;;;;;14.64;77.80;97717.41;5195220;28;20025;-78
2022/04/07 07:25:10;;;;;;;1.33;0.65;;;;;;;14.50;78.36;97703.00;5198057;28;20033;-78
2022/04/07 07:27:43;;;;;;;1.15;0.40;;;;;;;14.36;78.94;97692.16;5176947;28;20033;-78
2022/04/07 07:30:16;;;;;;;1.15;0.50;;;;;;;16.06;74.26;97679.97;5173014;28;20041;-78
2022/04/07 07:32:47;;;;;;;1.75;0.43;;;;;;;16.93;69.23;97697.81;5190439;28;20026;-78
2022/04/07 07:35:18;;;;;;;2.67;0.50;;;;;;;18.62;67.02;97683.22;5192137;28;20042;-79
2022/04/07 07:37:53;;;;;;;1.23;0.47;;;;;;;18.66;66.03;97675.78;5195700;28;20033;-78
2022/04/07 07:40:25;;;;;;;0.43;0.30;;;;;;;17.72;67.28;97676.81;5198354;28;20037;-78
2022/04/07 07:42:56;;;;;;;1.52;0.30;;;;;;;17.06;68.42;97686.78;5177001;28;20369;-79
2022/04/07 07:45:28;;;;;;;0.40;0.20;;;;;;;16.48;70.74;97669.41;5186151;28;20033;-78
2022/04/07 07:47:59;;;;;;;0.80;0.20;;;;;;;17.35;69.32;97669.47;5193620;28;20021;-78
2022/04/07 07:50:29;;;;;;;0.73;0.28;;;;;;;16.49;71.17;97665.78;5194275;28;20480;-78
2022/04/07 07:53:00;;;;;;;0.40;0.25;;;;;;;15.19;75.53;97662.66;5193158;28;20022;-78
2022/04/07 07:55:35;;;;;;;0.37;0.20;;;;;;;14.64;77.43;97664.84;5176989;28;20033;-78
2022/04/07 07:58:06;;;;;;;0.45;0.30;;;;;;;14.18;78.18;97652.75;5192521;28;20273;-78
2022/04/07 08:00:36;;;;;;;1.00;0.30;;;;;;;13.53;79.82;97645.03;5195367;28;20022;-77
2022/04/07 08:03:07;;;;;;;0.20;0.20;;;;;;;13.23;82.33;97641.81;5189199;28;20026;-78
2022/04/07 08:05:37;;;;;;;1.08;0.35;;;;;;;13.10;83.54;97625.56;5188821;28;20285;-78
2022/04/07 08:08:08;;;;;;;1.30;0.30;;;;;;;12.78;84.42;97646.00;5190179;28;20037;-79
2022/04/07 08:10:38;;;;;;;1.10;0.47;;;;;;;12.73;85.01;97626.44;5185681;28;20298;-79
2022/04/07 08:13:09;;;;;;;0.80;0.40;;;;;;;12.68;85.60;97616.38;5189858;28;20033;-79
2022/04/07 08:15:39;;;;;;;0.63;0.40;;;;;;;12.77;85.37;97627.81;5183787;28;20029;-78
2022/04/07 08:18:09;;;;;;;1.17;0.43;;;;;;;12.77;85.58;97610.28;5191954;28;20022;-79
2022/04/07 08:20:40;;;;;;;2.75;1.48;;;;;;;12.79;84.60;97600.50;5186199;28;20034;-78
2022/04/07 08:23:10;;;;;;;0.73;0.38;;;;;;;12.82;85.56;97586.28;5186074;28;20175;-78
2022/04/07 08:25:40;;;;;;;0.70;0.32;;;;;;;13.04;84.29;97594.69;5191530;28;20029;-78
2022/04/07 08:28:11;;;;;;;0.40;0.35;;;;;;;13.02;83.71;97580.88;5195218;28;20043;-79
2022/04/07 08:30:41;;;;;;;2.00;0.35;;;;;;;12.97;84.17;97572.63;5190747;28;20018;-78
2022/04/07 08:33:11;;;;;;;1.20;0.50;;;;;;;12.93;84.75;97567.78;5191157;28;20461;-79
2022/04/07 08:35:41;;;;;;;0.80;0.60;;;;;;;13.03;85.13;97582.56;5190737;28;20120;-79
2022/04/07 08:38:15;;;;;;;0.95;0.40;;;;;;;13.09;84.16;97555.75;5187567;28;20040;-78
2022/04/07 08:40:51;;;;;;;0.63;0.50;;;;;;;13.36;82.88;97542.66;5170880;28;20029;-78
2022/04/07 08:43:23;;;;;;;0.85;0.50;;;;;;;13.50;82.87;97539.53;5182709;28;20022;-78
2022/04/07 08:45:53;;;;;;;0.98;0.38;;;;;;;13.23;81.42;97544.81;5166519;28;20033;-79
2022/04/07 08:48:25;;;;;;;1.00;0.40;;;;;;;13.43;81.34;97520.94;5183086;28;20088;-78
2022/04/07 08:50:56;;;;;;;0.77;0.40;;;;;;;13.79;81.98;97512.16;5182285;28;20515;-79
2022/04/07 08:53:26;;;;;;;1.10;0.47;;;;;;;13.95;79.69;97499.16;5167474;28;20026;-78
2022/04/07 08:55:58;;;;;;;1.35;0.40;;;;;;;13.76;80.54;97488.00;5172536;28;20033;-78
2022/04/07 08:58:28;;;;;;;1.05;0.50;;;;;;;13.74;79.90;97497.84;5189667;28;20079;-79
2022/04/07 09:01:00;;;;;;;1.00;0.40;;;;;;;13.68;81.78;97480.03;5173572;28;20026;-79
2022/04/07 09:03:31;;;;;;;0.88;0.60;;;;;;;13.41;80.90;97506.34;5190521;28;20044;-79
2022/04/07 09:06:03;;;;;;;1.52;0.38;;;;;;;13.47;81.64;97472.47;5185212;28;20108;-79
2022/04/07 09:08:35;;;;;;;0.60;0.40;;;;;;;13.92;81.24;97493.41;5181038;28;20125;-79
2022/04/07 09:11:08;;;;;;;1.10;0.40;;;;;;;14.47;78.00;97479.13;5179051;28;20050;-79
2022/04/07 09:13:41;;;;;;;1.52;0.40;;;;;;;14.96;78.83;97455.56;5194157;28;20025;-79
2022/04/07 09:16:13;;;;;;;3.08;0.45;;;;;;;14.92;77.90;97465.59;5198242;28;20093;-79
2022/04/07 09:18:47;;;;;;;0.82;0.40;;;;;;;14.51;78.07;97467.31;5196623;28;20084;-79
2022/04/07 09:21:28;;;;;;;1.05;0.40;;;;;;;14.08;78.94;97457.63;5199194;28;20034;-77
2022/04/07 09:24:00;;;;;;;1.52;0.75;;;;;;;13.80;81.27;97432.47;5192341;28;20036;-78
2022/04/07 09:26:33;;;;;;;0.50;0.30;;;;;;;13.65;80.67;97443.63;5180645;28;20482;-79
2022/04/07 09:29:09;;;;;;;1.58;0.40;;;;;;;13.65;82.43;97430.50;5198946;28;20037;-78
2022/04/07 09:31:51;;;;;;;0.70;0.40;;;;;;;13.61;81.11;97431.78;5200689;28;20030;-79
2022/04/07 09:34:31;;;;;;;0.70;0.40;;;;;;;13.34;81.73;97429.19;5178323;28;20136;-78
2022/04/07 09:37:06;;;;;;;1.13;0.30;;;;;;;13.32;84.10;97423.28;5198944;28;20109;-79
2022/04/07 09:39:39;;;;;;;0.70;0.30;;;;;;;13.15;86.08;97417.06;5169882;28;20495;-79
2022/04/07 09:42:25;;;;;;;0.40;0.30;;;;;;;12.70;88.46;97404.00;5189719;28;20036;-80
2022/04/07 09:44:58;;;;;;;0.65;0.20;;;;;;;12.56;90.19;97402.69;5185887;28;20065;-79
2022/04/07 09:47:42;;;;;;;0.43;0.20;;;;;;;12.30;94.15;97411.34;5196013;28;20040;-79
2022/04/07 09:50:24;;;;;;;1.30;0.30;;;;;;;12.16;96.21;97377.75;5179683;28;20128;-78
2022/04/07 09:52:57;;;;;;;0.57;0.30;;;;;;;12.19;97.09;97380.09;5184057;28;20026;-79
2022/04/07 09:55:36;;;;;;;0.32;0.30;;;;;;;12.16;98.21;97370.72;5194469;28;20041;-77
2022/04/07 09:58:08;;;;;;;1.27;0.40;;;;;;;12.33;97.86;97364.72;5175113;28;20061;-78
2022/04/07 10:00:39;;;;;;;0.90;0.30;;;;;;;12.35;97.96;97359.38;5180049;28;20033;-79
2022/04/07 10:03:10;;;;;;;0.38;0.25;;;;;;;12.01;100.00;97355.63;5198631;28;20037;-78
2022/04/07 10:05:41;;;;;;;0.65;0.30;;;;;;;11.96;100.00;97332.47;5196659;28;20056;-78
2022/04/07 10:08:12;;;;;;;0.30;0.30;;;;;;;11.94;100.00;97331.81;5199593;28;20036;-77
2022/04/07 10:10:43;;;;;;;1.00;0.30;;;;;;;11.90;100.00;97319.13;5175498;28;20026;-79
2022/04/07 10:13:14;;;;;;;0.30;0.20;;;;;;;11.78;100.00;97301.97;5195611;28;20484;-78
2022/04/07 10:15:46;;;;;;;1.17;0.30;;;;;;;11.73;100.00;97283.25;5188161;28;20124;-79
2022/04/07 10:18:28;;;;;;;2.95;0.30;;;;;;;11.88;100.00;97301.00;5197485;28;20218;-78
2022/04/07 10:21:01;;;;;;;1.45;0.20;;;;;;;12.15;100.00;97274.84;5173540;28;20726;-78
2022/04/07 10:23:46;;;;;;;0.38;0.22;;;;;;;12.61;100.00;97277.34;5189186;28;20093;-78
2022/04/07 10:26:18;;;;;;;0.55;0.20;;;;;;;13.00;100.00;97268.28;5191040;28;20132;-78
2022/04/07 10:28:56;;;;;;;0.75;0.20;;;;;;;13.16;98.50;97243.03;5199562;28;20467;-77
2022/04/07 10:31:27;;;;;;;2.05;0.25;;;;;;;13.33;99.12;97249.22;5180298;28;20188;-78
2022/04/07 10:34:06;;;;;;;0.20;0.20;;;;;;;13.25;97.42;97236.06;5198239;28;20028;-78
2022/04/07 10:36:40;;;;;;;0.10;0.10;;;;;;;13.35;96.03;97228.91;5194679;28;20088;-78
2022/04/07 10:39:12;;;;;;;0.30;0.10;;;;;;;13.46;93.76;97224.25;5195442;28;20030;-78
2022/04/07 10:41:43;;;;;;;0.90;0.20;;;;;;;13.12;93.65;97212.88;5190033;28;20116;-78
2022/04/07 10:44:17;;;;;;;1.55;0.20;;;;;;;12.88;95.68;97217.03;5191031;28;20172;-78
2022/04/07 10:46:48;;;;;;;0.87;0.17;;;;;;;12.51;99.26;97212.91;5177237;28;20095;-78
2022/04/07 10:49:23;;;;;;;0.77;0.30;;;;;;;12.24;100.00;97203.28;5196042;28;20328;-78
2022/04/07 10:51:55;;;;;;;0.67;0.10;;;;;;;12.07;100.00;97200.63;5194313;28;20068;-78
2022/04/07 10:54:30;;;;;;;0.28;0.20;;;;;;;12.13;100.00;97184.38;5192739;28;20288;-77
2022/04/07 10:57:01;;;;;;;1.02;0.10;;;;;;;12.32;100.00;97190.28;5174380;28;20158;-78
2022/04/07 10:59:34;;;;;;;0.75;0.20;;;;;;;12.69;100.00;97154.31;5189632;28;20033;-78
2022/04/07 11:02:10;;;;;;;0.13;0.10;;;;;;;13.16;100.00;97153.06;5194625;28;20502;-78
2022/04/07 11:04:58;;;;;;;0.50;0.20;;;;;;;13.66;100.00;97125.97;5185928;28;20021;-78
2022/04/07 11:07:54;;;;;;;0.52;0.20;;;;;;;13.60;98.80;97131.03;5194151;28;20131;-77
2022/04/07 11:10:48;;;;;;;0.63;0.20;;;;;;;13.76;100.00;97118.78;5197784;28;20042;-78
2022/04/07 11:13:38;;;;;;;0.30;0.10;;;;;;;13.45;95.81;97101.94;5192286;28;20108;-78
2022/04/07 11:16:25;;;;;;;0.88;0.20;;;;;;;13.48;97.55;97098.19;5187220;28;20038;-78
2022/04/07 11:19:15;;;;;;;0.52;0.10;;;;;;;13.41;97.89;97084.88;5191944;28;20045;-79
2022/04/07 11:21:49;;;;;;;0.95;0.10;;;;;;;13.74;100.00;97075.34;5189305;28;20025;-78
2022/04/07 11:24:24;;;;;;;0.85;0.20;;;;;;;13.89;100.00;97073.75;5194331;22;20041;-78
2022/04/07 11:26:54;;;;;;;0.90;0.15;;;;;;;13.54;98.17;97077.38;5188887;28;20072;-78
2022/04/07 11:29:34;;;;;;;0.63;0.30;;;;;;;13.17;97.27;97252.53;5209581;28;20040;-78
2022/04/07 11:32:09;;;;;;;3.55;0.40;;;;;;;9.61;94.07;97324.03;5195069;28;20035;-79
2022/04/07 11:34:40;;;;;;;3.63;0.63;;;;;;;7.53;100.00;97326.13;5197614;28;20028;-78
2022/04/07 11:37:14;;;;;;;3.15;0.50;;;;;;;7.31;100.00;97322.63;5190961;28;20029;-78
2022/04/07 11:39:50;;;;;;;2.75;0.80;;;;;;;7.02;100.00;97315.34;5205902;28;20045;-78
2022/04/07 11:42:22;;;;;;;2.67;0.50;;;;;;;6.69;100.00;97330.78;5191035;28;20399;-78
2022/04/07 11:44:58;;;;;;;3.58;0.40;;;;;;;6.69;100.00;97354.13;5169308;28;20052;-78
2022/04/07 11:47:36;;;;;;;3.28;1.60;;;;;;;6.72;100.00;97356.50;5186354;28;20029;-78
2022/04/07 11:50:07;;;;;;;2.03;1.42;;;;;;;6.90;100.00;97362.97;5193394;28;20392;-78
2022/04/07 11:52:38;;;;;;;2.45;0.80;;;;;;;6.94;100.00;97359.22;5203663;28;20036;-78
2022/04/07 11:55:09;;;;;;;3.97;1.40;;;;;;;6.99;100.00;97375.28;5205836;28;20394;-78
2022/04/07 11:57:39;;;;;;;3.50;1.90;;;;;;;7.06;100.00;97371.28;5197396;28;20033;-78